createdAt,value
2022-10-09T00:03:01.558Z,48.96
2022-10-09T00:08:04.240Z,49.04
2022-10-09T00:13:08.275Z,49.30
2022-10-09T00:18:11.934Z,49.59
2022-10-09T00:23:17.249Z,50.08
2022-10-09T00:28:21.371Z,50.35
2022-10-09T00:33:25.334Z,50.74
2022-10-09T00:38:27.968Z,51.04
2022-10-09T00:43:46.402Z,51.12
2022-10-09T00:48:49.679Z,51.06
2022-10-09T00:53:52.404Z,50.69
2022-10-09T00:58:56.951Z,50.48
2022-10-09T01:03:59.792Z,50.55
2022-10-09T01:09:03.564Z,50.74
2022-10-09T01:14:11.254Z,51.01
2022-10-09T01:19:24.849Z,51.18
2022-10-09T01:24:29.771Z,51.24
2022-10-09T01:29:35.912Z,51.44
2022-10-09T01:34:38.559Z,51.54
2022-10-09T01:39:41.274Z,51.64
2022-10-09T01:44:45.409Z,51.96
2022-10-09T01:49:52.961Z,52.11
2022-10-09T01:55:03.225Z,52.21
2022-10-09T02:00:09.218Z,52.26
2022-10-09T02:05:21.423Z,52.41
2022-10-09T02:10:24.107Z,52.42
2022-10-09T02:15:29.231Z,52.70
2022-10-09T02:20:33.501Z,52.81
2022-10-09T02:25:36.300Z,52.95
2022-10-09T02:30:45.192Z,52.84
2022-10-09T02:35:48.541Z,53.16
2022-10-09T02:40:51.223Z,53.16
2022-10-09T02:45:55.221Z,53.41
2022-10-09T02:50:57.847Z,53.39
2022-10-09T02:56:00.607Z,53.60
2022-10-09T03:01:04.809Z,53.65
2022-10-09T03:06:09.446Z,53.75
2022-10-09T03:11:12.495Z,53.81
2022-10-09T03:16:17.213Z,53.91
2022-10-09T03:21:20.770Z,54.26
2022-10-09T03:26:24.421Z,54.18
2022-10-09T03:36:51.435Z,54.34
2022-10-09T03:41:54.273Z,54.47
2022-10-09T03:46:58.386Z,54.55
2022-10-09T03:52:01.111Z,54.67
2022-10-09T03:57:03.772Z,54.63
2022-10-09T04:02:08.095Z,54.59
2022-10-09T04:07:10.798Z,54.83
2022-10-09T04:12:13.445Z,54.92
2022-10-09T04:17:17.452Z,54.80
2022-10-09T04:22:20.233Z,54.80
2022-10-09T04:27:22.965Z,55.16
2022-10-09T04:32:26.984Z,55.24
2022-10-09T04:37:29.731Z,55.15
2022-10-09T04:42:32.428Z,55.36
2022-10-09T04:47:36.617Z,55.23
2022-10-09T04:52:39.345Z,55.19
2022-10-09T04:57:42.028Z,55.41
2022-10-09T05:02:46.248Z,55.25
2022-10-09T05:07:49.230Z,55.44
2022-10-09T05:12:51.944Z,55.71
2022-10-09T05:17:55.986Z,55.25
2022-10-09T05:22:58.925Z,55.40
2022-10-09T05:28:02.367Z,55.32
2022-10-09T05:33:06.495Z,55.49
2022-10-09T05:38:09.171Z,55.55
2022-10-09T05:43:11.888Z,55.79
2022-10-09T05:48:16.264Z,55.69
2022-10-09T05:53:18.954Z,55.86
2022-10-09T05:58:21.868Z,55.88
2022-10-09T06:03:25.917Z,56.10
2022-10-09T06:08:28.796Z,56.09
2022-10-09T06:13:31.587Z,55.93
2022-10-09T06:18:35.896Z,56.07
2022-10-09T06:23:38.824Z,56.04
2022-10-09T06:28:41.728Z,56.31
2022-10-09T06:33:46.302Z,56.07
2022-10-09T06:38:49.079Z,55.92
2022-10-09T06:43:53.990Z,56.10
2022-10-09T06:48:59.452Z,55.99
2022-10-09T06:54:04.527Z,56.16
2022-10-09T06:59:07.673Z,56.25
2022-10-09T07:04:12.877Z,56.41
2022-10-09T07:09:16.044Z,56.18
2022-10-09T07:14:18.691Z,55.80
2022-10-09T07:19:22.714Z,55.46
2022-10-09T07:24:25.643Z,55.79
2022-10-09T07:29:28.293Z,55.87
2022-10-09T07:34:32.353Z,56.39
2022-10-09T07:39:36.325Z,56.38
2022-10-09T07:44:39.014Z,56.20
2022-10-09T07:49:43.117Z,43.61
2022-10-09T07:54:45.914Z,44.17
2022-10-09T07:59:48.610Z,46.46
2022-10-09T08:04:52.589Z,47.85
2022-10-09T08:09:55.320Z,47.61
2022-10-09T08:14:58.012Z,47.88
2022-10-09T08:20:02.078Z,48.22
2022-10-09T08:25:05.552Z,48.32
2022-10-09T08:30:09.664Z,48.37
2022-10-09T08:35:14.195Z,48.45
2022-10-09T08:40:17.119Z,48.59
2022-10-09T08:45:20.075Z,48.79
2022-10-09T08:50:25.940Z,48.98
2022-10-09T08:55:29.731Z,49.39
2022-10-09T09:00:36.178Z,49.53
2022-10-09T09:05:44.759Z,49.76
2022-10-09T09:10:50.890Z,49.68
2022-10-09T09:15:55.322Z,49.94
2022-10-09T09:21:00.516Z,49.97
2022-10-09T09:26:03.280Z,50.01
2022-10-09T09:31:09.156Z,50.26
2022-10-09T09:36:15.178Z,50.48
2022-10-09T09:41:18.122Z,50.42
2022-10-09T09:46:22.298Z,50.39
2022-10-09T09:51:29.601Z,50.41
2022-10-09T09:56:59.900Z,50.57
2022-10-09T10:02:01.961Z,50.63
2022-10-09T10:07:06.685Z,49.63
2022-10-09T10:12:13.577Z,50.63
2022-10-09T10:17:19.061Z,50.27
2022-10-09T10:22:25.211Z,50.38
2022-10-09T10:27:30.142Z,50.78
2022-10-09T10:32:34.407Z,51.15
2022-10-09T10:37:41.427Z,51.26
2022-10-09T10:42:47.311Z,51.70
2022-10-09T10:47:51.089Z,53.77
2022-10-09T10:53:02.985Z,54.44
2022-10-09T10:58:13.576Z,53.86
2022-10-09T11:03:23.641Z,53.69
2022-10-09T11:08:42.642Z,53.59
2022-10-09T11:13:50.024Z,53.16
2022-10-09T11:19:00.847Z,53.18
2022-10-09T11:24:37.168Z,53.05
2022-10-09T11:29:42.348Z,52.51
2022-10-09T11:34:48.125Z,51.95
2022-10-09T11:39:52.254Z,51.34
2022-10-09T11:45:01.842Z,51.27
2022-10-09T11:50:14.450Z,50.94
2022-10-09T11:55:20.435Z,50.73
2022-10-09T12:00:31.071Z,50.45
2022-10-09T12:05:40.857Z,49.81
2022-10-09T12:10:47.609Z,49.79
2022-10-09T12:15:54.721Z,49.44
2022-10-09T12:20:57.893Z,49.02
2022-10-09T12:26:02.019Z,48.85
2022-10-09T12:31:06.421Z,48.24
2022-10-09T12:36:13.273Z,47.82
2022-10-09T12:41:21.724Z,47.83
2022-10-09T12:46:29.242Z,47.17
2022-10-09T12:51:32.939Z,47.08
2022-10-09T12:56:38.452Z,46.79
2022-10-09T13:01:41.391Z,46.25
2022-10-09T13:06:44.958Z,46.53
2022-10-09T13:11:52.828Z,45.55
2022-10-09T13:16:55.654Z,45.08
2022-10-09T13:22:18.296Z,45.46
2022-10-09T13:27:22.552Z,44.70
2022-10-09T13:32:25.353Z,43.61
2022-10-09T13:37:28.157Z,43.51
2022-10-09T13:42:33.976Z,43.31
2022-10-09T13:47:36.812Z,43.48
2022-10-09T13:57:48.929Z,42.10
2022-10-09T14:02:52.072Z,42.43
2022-10-09T14:07:55.379Z,42.45
2022-10-09T14:12:59.621Z,42.82
2022-10-09T14:18:02.274Z,43.42
2022-10-09T14:23:05.032Z,43.26
2022-10-09T14:28:09.060Z,43.31
2022-10-09T14:33:12.538Z,43.04
2022-10-09T14:38:15.503Z,43.50
2022-10-09T14:43:20.043Z,43.40
2022-10-09T14:48:22.743Z,43.42
2022-10-09T14:53:27.012Z,42.99
2022-10-09T14:58:32.098Z,41.99
2022-10-09T15:03:35.680Z,41.01
2022-10-09T15:08:39.904Z,40.57
2022-10-09T15:13:45.057Z,40.19
2022-10-09T15:18:49.012Z,40.25
2022-10-09T15:23:51.737Z,40.98
2022-10-09T15:28:55.773Z,41.45
2022-10-09T15:33:58.664Z,41.88
2022-10-09T15:39:03.156Z,42.81
2022-10-09T15:44:08.923Z,42.07
2022-10-09T15:49:11.683Z,42.31
2022-10-09T15:54:15.012Z,41.64
2022-10-09T15:59:19.143Z,41.04
2022-10-09T16:04:21.926Z,41.08
2022-10-09T16:09:25.093Z,40.50
2022-10-09T16:14:30.359Z,41.29
2022-10-09T16:19:33.086Z,41.23
2022-10-09T16:24:35.872Z,41.09
2022-10-09T16:29:39.994Z,41.74
2022-10-09T16:34:42.707Z,41.92
2022-10-09T16:39:45.793Z,42.15
2022-10-09T16:44:51.485Z,42.44
2022-10-09T16:49:54.173Z,42.70
2022-10-09T16:55:00.168Z,43.04
2022-10-09T17:00:05.605Z,43.07
2022-10-09T17:05:09.127Z,43.36
2022-10-09T17:10:11.801Z,43.36
2022-10-09T17:15:15.938Z,43.52
2022-10-09T17:20:18.747Z,43.94
2022-10-09T17:25:21.507Z,44.10
2022-10-09T17:30:26.644Z,44.37
2022-10-09T17:35:29.272Z,44.25
2022-10-09T17:40:31.977Z,44.38
2022-10-09T17:45:39.570Z,44.47
2022-10-09T17:50:42.229Z,44.45
2022-10-09T17:55:44.939Z,44.59
2022-10-09T18:00:49.106Z,44.64
2022-10-09T18:05:52.189Z,44.63
2022-10-09T18:10:58.452Z,44.69
2022-10-09T18:16:05.714Z,44.78
2022-10-09T18:21:10.294Z,44.87
2022-10-09T18:26:14.669Z,44.98
2022-10-09T18:31:20.748Z,45.10
2022-10-09T18:36:24.792Z,44.93
2022-10-09T18:41:27.486Z,45.14
2022-10-09T18:46:32.802Z,45.23
2022-10-09T18:51:35.598Z,45.19
2022-10-09T18:56:38.343Z,45.48
2022-10-09T19:01:42.354Z,45.57
2022-10-09T19:06:45.350Z,45.57
2022-10-09T19:11:48.024Z,45.72
2022-10-09T19:16:52.065Z,45.77
2022-10-09T19:21:55.003Z,45.82
2022-10-09T19:26:58.346Z,46.08
2022-10-09T19:32:02.388Z,46.13
2022-10-09T19:42:13.129Z,46.06
2022-10-09T19:47:18.872Z,46.07
2022-10-09T19:52:23.016Z,46.18
2022-10-09T19:57:26.543Z,45.81
2022-10-09T20:02:30.836Z,45.83
2022-10-09T20:07:33.606Z,46.01
2022-10-09T20:12:36.288Z,46.00
2022-10-09T20:17:40.289Z,46.02
2022-10-09T20:22:43.367Z,45.80
2022-10-09T20:27:46.057Z,45.76
2022-10-09T20:32:51.470Z,45.75
2022-10-09T20:37:57.044Z,46.03
2022-10-09T20:42:59.725Z,45.97
2022-10-09T20:48:03.742Z,45.86
2022-10-09T20:53:06.639Z,46.11
2022-10-09T20:58:09.293Z,46.06
2022-10-09T21:03:13.325Z,45.93
2022-10-09T21:08:15.994Z,46.25
2022-10-09T21:13:18.701Z,46.09
2022-10-09T21:18:23.294Z,46.15
2022-10-09T21:23:26.206Z,46.12
2022-10-09T21:28:29.101Z,46.31
2022-10-09T21:33:33.260Z,46.31
2022-10-09T21:38:35.923Z,46.32
2022-10-09T21:43:38.588Z,46.31
2022-10-09T21:48:42.683Z,46.49
2022-10-09T21:53:45.488Z,46.34
2022-10-09T21:58:49.168Z,46.27
2022-10-09T22:03:53.781Z,46.35
2022-10-09T22:08:56.457Z,46.57
2022-10-09T22:13:59.148Z,46.55
2022-10-09T22:19:03.196Z,46.94
2022-10-09T22:24:06.142Z,47.10
2022-10-09T22:29:08.790Z,47.46
2022-10-09T22:34:12.804Z,47.65
2022-10-09T22:39:15.507Z,48.06
2022-10-09T22:44:18.207Z,48.28
2022-10-09T22:49:22.204Z,48.67
2022-10-09T22:54:25.070Z,48.93
2022-10-09T22:59:27.942Z,48.89
2022-10-09T23:04:32.263Z,48.94
2022-10-09T23:09:34.939Z,49.02
2022-10-09T23:14:37.605Z,48.88
2022-10-09T23:19:41.741Z,48.94
2022-10-09T23:24:44.662Z,48.68
2022-10-09T23:29:47.350Z,48.62
2022-10-09T23:34:51.411Z,48.68
2022-10-09T23:39:54.109Z,48.79
2022-10-09T23:44:57.009Z,49.03
2022-10-09T23:50:01.258Z,49.23
2022-10-09T23:55:04.040Z,49.17
